Praia, Cape Verde
Current Conditions -  °F | °C
As of 4:00 PM on Sunday 23 Nov 2014 (Local Time) from GVNP Reporting Station
Broken Clouds Broken Clouds  
Wind Chill: 79°   Ceiling: 1500
Heat Index: 82°   Visibility: 6mi
Dew Point: 72°   Wind: 23mph
Humidity: 78%   Direction: 20°NNE
Pressure: 29.94"   Gusts: NA
Location:  14.93°N, 23.54°W
Report Text: GVNP 231700Z 02020KT 9999 BKN015 26/22 Q1014 NOSIG
Loading
Personal Weather Stations






























Interactive Weather Map New forecast layout! Learn more

10-Day Weather Forecast

Advertisements
Track Severe Weather on mobile